INFORMACIÓN METAR y TAF
METAR FOR ENSB
ADDS - METARS form results

(1230 UTC 28 February 2021)
Data provider http://aviationweather.gov/metar/data/
 
METAR text: ENSB 281220Z 15012KT 9999 FEW055 M08/M16 Q0993 RMK WIND 1400FT 13012KT
Conditions at: ENSB (SVALBARD/LONGYEA, NO) observed 1220 UTC 28 February 2021
Temperature: -8.0°C (18°F)
Dewpoint: -16.0°C ( 3°F) [RH = 53%]
Pressure (altimeter): 29.32 inches Hg (993.0 mb)
Winds: from the SSE (150 degrees) at 14 MPH (12 knots; 6.2 m/s)
Visibility: 6 or more miles (10+ km)
Ceiling: at least 12,000 feet AGL
Clouds: few clouds at 5500 feet AGL
Weather: no significant weather observed at this time

METAR text: ENSB 281150Z 13012KT 9999 SCT055 M07/M15 Q0993 RMK WIND 1400FT 12010KT
Conditions at: ENSB (SVALBARD/LONGYEA, NO) observed 1150 UTC 28 February 2021
Temperature: -7.0°C (19°F)
Dewpoint: -15.0°C ( 5°F) [RH = 53%]
Pressure (altimeter): 29.32 inches Hg (993.0 mb)
Winds: from the SE (130 degrees) at 14 MPH (12 knots; 6.2 m/s)
Visibility: 6 or more miles (10+ km)
Ceiling: at least 12,000 feet AGL
Clouds: scattered clouds at 5500 feet AGL
Weather: no significant weather observed at this time

Forecast for: ENSB (SVALBARD/LONGYEA, NO)
Text: TAF ENSB 2812/0112 12008KT 9999 FEW020 SCT040
Forecast period: 1200 UTC 28 February 2021 to 1200 UTC 01 March 2021
Forecast type: FROM: standard forecast or significant change
Winds: from the ESE (120 degrees) at 9 MPH (8 knots; 4.1 m/s)
Visibility: 6 or more miles (10+ km)
Ceiling: at least 12,000 feet AGL
Clouds: few clouds at 2000 feet AGL
scattered clouds at 4000 feet AGL
Weather: no significant weather forecast for this period
Text: TEMPO 2812/2820 12020KT
Forecast period: 1200 to 2000 UTC 28 February 2021
Forecast type: TEMPORARY: The following changes expected for less than half the time period
Winds: from the ESE (120 degrees) at 23 MPH (20 knots; 10.3 m/s)
Visibility: missing
Ceiling: unknown
Clouds: missing
Weather: no significant weather forecast for this period

 MAPA DE AEROPUERTO

 INFORMACIÓN DE PISTA